sensor_id;sensor_type;location;lat;lon;timestamp;P1;durP1;ratioP1;P2;durP2;ratioP2
67090;SDS011;54007;55.818;49.058;2023-05-27T10:38:17;84.45;;;53.20;;
67090;SDS011;54007;55.818;49.058;2023-05-27T10:40:49;107.85;;;76.02;;
67090;SDS011;54007;55.818;49.058;2023-05-27T10:43:18;100.83;;;68.47;;
67090;SDS011;54007;55.818;49.058;2023-05-27T10:45:44;117.97;;;82.00;;
67090;SDS011;54007;55.818;49.058;2023-05-27T10:48:16;77.78;;;49.30;;
67090;SDS011;54007;55.818;49.058;2023-05-27T10:50:41;88.30;;;56.53;;
67090;SDS011;54007;55.818;49.058;2023-05-27T10:53:07;122.63;;;83.40;;
67090;SDS011;54007;55.818;49.058;2023-05-27T10:55:33;104.25;;;74.20;;
67090;SDS011;54007;55.818;49.058;2023-05-27T10:57:59;107.40;;;73.83;;
67090;SDS011;54007;55.818;49.058;2023-05-27T11:00:25;69.33;;;47.30;;
67090;SDS011;54007;55.818;49.058;2023-05-27T11:02:51;73.87;;;52.05;;
67090;SDS011;54007;55.818;49.058;2023-05-27T11:05:19;95.25;;;69.82;;
67090;SDS011;54007;55.818;49.058;2023-05-27T11:07:42;46.53;;;25.30;;
67090;SDS011;54007;55.818;49.058;2023-05-27T11:10:08;80.15;;;52.80;;
67090;SDS011;54007;55.818;49.058;2023-05-27T11:12:34;49.07;;;30.07;;
67090;SDS011;54007;55.818;49.058;2023-05-27T11:15:00;49.30;;;27.05;;
67090;SDS011;54007;55.818;49.058;2023-05-27T11:17:26;40.95;;;19.65;;
67090;SDS011;54007;55.818;49.058;2023-05-27T11:19:53;28.83;;;15.13;;
67090;SDS011;54007;55.818;49.058;2023-05-27T11:22:18;55.25;;;36.10;;
67090;SDS011;54007;55.818;49.058;2023-05-27T11:24:54;34.95;;;17.45;;
67090;SDS011;54007;55.818;49.058;2023-05-27T11:27:10;58.97;;;41.50;;
67090;SDS011;54007;55.818;49.058;2023-05-27T11:29:36;39.15;;;20.20;;
67090;SDS011;54007;55.818;49.058;2023-05-27T11:32:01;40.10;;;21.90;;
67090;SDS011;54007;55.818;49.058;2023-05-27T11:34:27;51.30;;;36.60;;
67090;SDS011;54007;55.818;49.058;2023-05-27T11:36:53;58.28;;;39.20;;
67090;SDS011;54007;55.818;49.058;2023-05-27T11:39:19;58.15;;;38.60;;
67090;SDS011;54007;55.818;49.058;2023-05-27T11:41:54;50.33;;;30.60;;
67090;SDS011;54007;55.818;49.058;2023-05-27T11:44:20;52.85;;;35.58;;
67090;SDS011;54007;55.818;49.058;2023-05-27T11:46:46;44.93;;;28.65;;
67090;SDS011;54007;55.818;49.058;2023-05-27T11:49:13;43.17;;;25.85;;
67090;SDS011;54007;55.818;49.058;2023-05-27T11:51:38;42.70;;;27.07;;
67090;SDS011;54007;55.818;49.058;2023-05-27T11:54:03;48.55;;;31.62;;
67090;SDS011;54007;55.818;49.058;2023-05-27T11:56:29;36.50;;;17.97;;
67090;SDS011;54007;55.818;49.058;2023-05-27T11:59:01;39.83;;;25.60;;
67090;SDS011;54007;55.818;49.058;2023-05-27T12:01:31;39.60;;;25.00;;
67090;SDS011;54007;55.818;49.058;2023-05-27T12:03:57;36.50;;;24.35;;
67090;SDS011;54007;55.818;49.058;2023-05-27T12:06:23;36.23;;;19.43;;
67090;SDS011;54007;55.818;49.058;2023-05-27T12:08:49;38.65;;;23.45;;
67090;SDS011;54007;55.818;49.058;2023-05-27T12:11:15;36.23;;;21.82;;
67090;SDS011;54007;55.818;49.058;2023-05-27T12:13:40;29.80;;;13.50;;
67090;SDS011;54007;55.818;49.058;2023-05-27T12:16:06;37.85;;;21.95;;
67090;SDS011;54007;55.818;49.058;2023-05-27T12:18:32;39.10;;;23.73;;
67090;SDS011;54007;55.818;49.058;2023-05-27T12:20:58;33.87;;;18.97;;
67090;SDS011;54007;55.818;49.058;2023-05-27T12:23:24;37.05;;;15.58;;
67090;SDS011;54007;55.818;49.058;2023-05-27T12:25:50;31.33;;;18.75;;
67090;SDS011;54007;55.818;49.058;2023-05-27T12:28:16;27.60;;;11.67;;
67090;SDS011;54007;55.818;49.058;2023-05-27T12:30:42;33.28;;;15.20;;
67090;SDS011;54007;55.818;49.058;2023-05-27T12:33:08;30.30;;;16.60;;
67090;SDS011;54007;55.818;49.058;2023-05-27T12:35:34;28.30;;;13.13;;
67090;SDS011;54007;55.818;49.058;2023-05-27T12:38:00;29.65;;;15.13;;
67090;SDS011;54007;55.818;49.058;2023-05-27T12:40:25;35.25;;;20.60;;
67090;SDS011;54007;55.818;49.058;2023-05-27T12:42:51;36.63;;;21.03;;
67090;SDS011;54007;55.818;49.058;2023-05-27T12:45:17;29.82;;;11.68;;
67090;SDS011;54007;55.818;49.058;2023-05-27T12:47:43;33.05;;;11.30;;
67090;SDS011;54007;55.818;49.058;2023-05-27T12:50:09;27.33;;;10.00;;
67090;SDS011;54007;55.818;49.058;2023-05-27T12:52:35;31.05;;;9.98;;
67090;SDS011;54007;55.818;49.058;2023-05-27T12:55:04;28.92;;;12.30;;
67090;SDS011;54007;55.818;49.058;2023-05-27T12:57:29;26.13;;;11.97;;
67090;SDS011;54007;55.818;49.058;2023-05-27T12:59:55;29.48;;;16.48;;
67090;SDS011;54007;55.818;49.058;2023-05-27T13:02:24;31.82;;;11.20;;
67090;SDS011;54007;55.818;49.058;2023-05-27T13:04:50;31.95;;;17.40;;
67090;SDS011;54007;55.818;49.058;2023-05-27T13:07:16;27.83;;;13.90;;
67090;SDS011;54007;55.818;49.058;2023-05-27T13:09:41;26.23;;;13.68;;
67090;SDS011;54007;55.818;49.058;2023-05-27T13:12:08;24.10;;;8.60;;
67090;SDS011;54007;55.818;49.058;2023-05-27T13:14:34;26.12;;;13.80;;
67090;SDS011;54007;55.818;49.058;2023-05-27T13:17:06;24.05;;;11.90;;
67090;SDS011;54007;55.818;49.058;2023-05-27T13:19:36;25.80;;;11.05;;
67090;SDS011;54007;55.818;49.058;2023-05-27T13:22:02;32.70;;;13.28;;
67090;SDS011;54007;55.818;49.058;2023-05-27T13:24:28;30.07;;;13.33;;
67090;SDS011;54007;55.818;49.058;2023-05-27T13:26:54;23.35;;;13.88;;
67090;SDS011;54007;55.818;49.058;2023-05-27T13:29:20;25.00;;;12.60;;
